Time;durP1;ratioP1;P1;durP2;ratioP2;P2;SDS_P1;SDS_P2;PMS_P1;PMS_P2;Temp;Humidity;BMP_temperature;BMP_pressure;BME280_temperature;BME280_humidity;BME280_pressure;Samples;Min_cycle;Max_cycle;Signal;HPM_P1;HPM_P2
2021/04/06 00:01:44;;;;;;;8.25;3.35;;;;;;;1.53;78.44;99434.66;5010353;28;20449;-42
2021/04/06 00:04:14;;;;;;;7.78;2.75;;;;;;;2.47;73.12;99441.44;5009186;28;20046;-43
2021/04/06 00:06:42;;;;;;;6.25;2.85;;;;;;;2.65;69.17;99441.91;5009130;28;20034;-43
2021/04/06 00:09:15;;;;;;;6.70;3.90;;;;;;;2.85;69.17;99441.47;5006260;28;20034;-42
2021/04/06 00:11:46;;;;;;;7.00;3.38;;;;;;;2.84;67.98;99437.16;5012247;28;20489;-42
2021/04/06 00:14:14;;;;;;;13.77;3.17;;;;;;;2.97;68.27;99423.78;5012916;28;20037;-44
2021/04/06 00:16:41;;;;;;;10.98;4.07;;;;;;;3.09;66.95;99425.25;5012268;28;20030;-69
2021/04/06 00:19:09;;;;;;;6.10;3.10;;;;;;;2.60;69.30;99423.81;5016199;28;20041;-69
2021/04/06 00:21:36;;;;;;;8.15;3.63;;;;;;;2.41;70.07;99419.91;5009454;28;20092;-68
2021/04/06 00:24:03;;;;;;;6.60;3.13;;;;;;;2.16;71.26;99425.63;5024364;28;20041;-68
2021/04/06 00:27:05;;;;;;;9.10;3.60;;;;;;;1.98;71.83;99420.81;5028959;28;20041;-69
2021/04/06 00:29:34;;;;;;;7.70;3.95;;;;;;;1.80;72.15;99417.69;5026515;28;20052;-69
2021/04/06 00:32:01;;;;;;;14.85;5.13;;;;;;;1.66;73.15;99423.16;5030276;28;20037;-68
2021/04/06 00:34:28;;;;;;;6.55;2.90;;;;;;;1.58;73.28;99421.59;5012462;28;20474;-68
2021/04/06 00:36:56;;;;;;;12.50;4.03;;;;;;;1.55;73.77;99424.22;5012646;28;20042;-68
2021/04/06 00:39:27;;;;;;;14.30;3.75;;;;;;;1.56;74.52;99426.81;5014105;28;20041;-67
2021/04/06 00:41:55;;;;;;;13.73;4.00;;;;;;;1.54;74.24;99430.31;5019016;28;20453;-68
2021/04/06 00:44:21;;;;;;;11.40;4.28;;;;;;;1.52;74.39;99419.09;5019145;28;20042;-70
2021/04/06 00:46:47;;;;;;;42.58;28.90;;;;;;;1.49;74.92;99423.44;5011886;28;20042;-68
2021/04/06 00:49:16;;;;;;;13.45;5.03;;;;;;;1.50;75.36;99430.38;5012025;28;20520;-68
2021/04/06 00:51:41;;;;;;;15.75;4.47;;;;;;;1.53;74.94;99426.88;5012074;28;20037;-68
2021/04/06 00:54:12;;;;;;;12.30;6.30;;;;;;;1.57;74.96;99435.44;5012019;28;20394;-68
2021/04/06 00:56:42;;;;;;;8.00;4.13;;;;;;;1.50;75.53;99426.91;5011680;28;20458;-68
2021/04/06 00:59:10;;;;;;;11.95;4.03;;;;;;;1.48;75.88;99426.09;5011673;28;20443;-68
2021/04/06 01:01:37;;;;;;;16.15;5.22;;;;;;;1.40;75.97;99433.16;4994157;28;20030;-69
2021/04/06 01:04:05;;;;;;;12.40;6.72;;;;;;;1.36;76.73;99432.34;5012778;28;20052;-69
2021/04/06 01:06:34;;;;;;;12.75;5.03;;;;;;;1.33;76.61;99431.53;5012452;28;20034;-69
2021/04/06 01:09:00;;;;;;;10.55;4.63;;;;;;;1.33;76.40;99436.72;5011613;28;20030;-69
2021/04/06 01:11:26;;;;;;;14.73;4.25;;;;;;;1.37;76.51;99428.00;5012210;28;20034;-68
2021/04/06 01:14:00;;;;;;;11.30;3.80;;;;;;;1.39;75.97;99442.69;5012177;28;20030;-69
2021/04/06 01:16:26;;;;;;;10.88;3.95;;;;;;;1.42;75.81;99426.19;5012516;28;20077;-69
2021/04/06 01:18:51;;;;;;;6.88;3.70;;;;;;;1.43;76.01;99420.97;5011876;28;20068;-69
2021/04/06 01:21:17;;;;;;;6.47;3.38;;;;;;;1.41;75.54;99422.75;5011947;28;20030;-69
2021/04/06 01:23:42;;;;;;;12.95;3.60;;;;;;;1.44;75.89;99427.88;5011337;28;20049;-69
2021/04/06 01:26:11;;;;;;;9.50;4.18;;;;;;;1.45;75.52;99423.53;5011309;28;20037;-69
2021/04/06 01:28:37;;;;;;;6.45;3.10;;;;;;;1.42;75.35;99429.63;5010836;28;20062;-69
2021/04/06 01:31:06;;;;;;;11.20;3.45;;;;;;;1.39;75.12;99432.31;5026309;28;20121;-69
2021/04/06 01:33:33;;;;;;;11.00;2.35;;;;;;;1.39;75.39;99426.25;5011390;28;20037;-69
2021/04/06 01:36:08;;;;;;;6.07;3.10;;;;;;;1.37;75.49;99428.00;5011370;28;20037;-69
2021/04/06 01:38:38;;;;;;;16.25;3.95;;;;;;;1.34;75.66;99428.94;5010100;28;20608;-69
2021/04/06 01:41:04;;;;;;;5.18;3.15;;;;;;;1.39;75.16;99429.69;5011153;28;20068;-69
2021/04/06 01:43:30;;;;;;;7.22;2.67;;;;;;;1.39;75.14;99429.69;5011830;28;20057;-69
2021/04/06 01:46:49;;;;;;;5.80;2.10;;;;;;;1.39;74.74;99419.31;5015443;28;20045;-69
2021/04/06 01:48:50;;;;;;;8.48;3.05;;;;;;;1.40;75.66;99423.59;5017761;28;20030;-69
2021/04/06 01:51:21;;;;;;;8.13;3.97;;;;;;;1.43;74.28;99427.94;5011968;28;20030;-68
2021/04/06 01:53:47;;;;;;;6.50;2.20;;;;;;;1.46;74.93;99433.06;5013993;28;20691;-69
2021/04/06 01:56:15;;;;;;;7.78;2.78;;;;;;;1.43;75.27;99422.72;5021698;28;20036;-69
2021/04/06 01:58:47;;;;;;;8.43;2.80;;;;;;;1.48;74.68;99426.09;5028173;28;20385;-69
2021/04/06 02:03:47;;;;;;;7.28;4.20;;;;;;;1.38;75.37;99409.81;5030411;28;20424;-69
2021/04/06 02:06:14;;;;;;;6.18;2.33;;;;;;;1.34;75.50;99413.34;5030313;28;20022;-68
2021/04/06 02:08:46;;;;;;;6.50;2.38;;;;;;;1.35;75.28;99412.44;5030456;28;20431;-69
2021/04/06 02:11:15;;;;;;;7.40;3.13;;;;;;;1.34;75.48;99423.72;5030112;28;20079;-68
2021/04/06 02:13:40;;;;;;;9.90;3.72;;;;;;;1.27;77.10;99420.38;5030360;28;20049;-69
2021/04/06 02:16:05;;;;;;;5.38;2.58;;;;;;;1.25;77.48;99434.28;5030164;28;20444;-69
2021/04/06 02:18:31;;;;;;;8.02;2.80;;;;;;;1.21;77.72;99428.28;5011637;28;20560;-69
2021/04/06 02:21:07;;;;;;;6.70;2.55;;;;;;;1.22;77.90;99418.75;5010153;28;20036;-69
2021/04/06 02:23:43;;;;;;;6.43;2.70;;;;;;;1.25;78.32;99423.88;5010634;28;20033;-70
2021/04/06 02:26:09;;;;;;;5.90;3.35;;;;;;;1.20;78.36;99429.16;5010280;28;20041;-70
2021/04/06 02:28:34;;;;;;;7.38;4.28;;;;;;;1.18;78.52;99427.47;5008961;28;20034;-69
2021/04/06 02:31:02;;;;;;;8.35;4.93;;;;;;;1.19;78.42;99430.06;5010336;28;20040;-70
2021/04/06 02:33:34;;;;;;;8.68;5.03;;;;;;;1.19;77.98;99431.78;5009794;28;20116;-69
2021/04/06 02:36:09;;;;;;;15.32;5.60;;;;;;;1.13;78.08;99442.25;5010585;28;20056;-69
2021/04/06 02:38:43;;;;;;;14.32;5.45;;;;;;;1.01;79.29;99427.75;5009538;28;20342;-69
2021/04/06 02:41:14;;;;;;;15.88;5.50;;;;;;;0.95;79.62;99428.72;5010198;28;20026;-69
2021/04/06 02:44:06;;;;;;;17.25;6.53;;;;;;;0.90;79.84;99442.66;5009956;28;20033;-69
2021/04/06 02:46:32;;;;;;;14.77;6.32;;;;;;;0.85;80.38;99447.91;5008325;28;20050;-69
2021/04/06 02:49:00;;;;;;;9.73;4.43;;;;;;;0.80;80.04;99431.56;5009557;28;20026;-69
2021/04/06 02:51:26;;;;;;;8.30;3.13;;;;;;;0.77;79.79;99432.44;5009683;28;20489;-69
2021/04/06 02:53:52;;;;;;;11.25;3.42;;;;;;;0.80;79.58;99431.56;5010094;28;20052;-69
2021/04/06 02:56:32;;;;;;;7.45;3.28;;;;;;;0.80;79.05;99427.22;5009778;28;20394;-69
2021/04/06 02:59:14;;;;;;;3.95;2.53;;;;;;;0.81;78.77;99425.47;5009287;28;20033;-69
2021/04/06 03:01:40;;;;;;;4.15;2.45;;;;;;;0.81;79.33;99422.88;5009798;28;20083;-69
2021/04/06 03:04:23;;;;;;;10.55;3.95;;;;;;;0.82;78.40;99429.78;4994055;28;20038;-69
2021/04/06 03:06:50;;;;;;;5.85;2.83;;;;;;;0.83;78.69;99428.91;4990347;28;20042;-69
2021/04/06 03:09:18;;;;;;;8.32;3.30;;;;;;;0.82;78.60;99424.59;4997909;28;20049;-69
2021/04/06 03:11:45;;;;;;;3.88;2.28;;;;;;;0.85;78.15;99430.59;4990021;28;20524;-69
2021/04/06 03:14:11;;;;;;;7.70;4.22;;;;;;;0.89;77.84;99422.75;4989971;28;20039;-69
2021/04/06 03:16:37;;;;;;;13.05;3.90;;;;;;;0.90;77.88;99429.66;4989875;28;20042;-69
2021/04/06 03:19:05;;;;;;;8.65;2.67;;;;;;;0.94;77.54;99424.41;4989813;28;20030;-69
2021/04/06 03:21:32;;;;;;;13.05;3.30;;;;;;;0.95;77.70;99420.06;4989649;28;20027;-69
2021/04/06 03:23:59;;;;;;;19.70;3.55;;;;;;;0.94;77.20;99415.78;4989706;28;20023;-69
2021/04/06 03:26:24;;;;;;;8.85;3.25;;;;;;;0.94;77.58;99418.38;4989662;28;20164;-69
2021/04/06 03:28:49;;;;;;;7.90;3.45;;;;;;;0.95;77.95;99420.91;4990039;28;20113;-69
2021/04/06 03:31:20;;;;;;;11.93;3.30;;;;;;;0.94;78.15;99413.19;4989712;28;20427;-69
2021/04/06 03:33:48;;;;;;;9.95;4.63;;;;;;;0.93;77.68;99419.22;4988240;28;20058;-69
2021/04/06 03:36:28;;;;;;;9.68;4.90;;;;;;;0.91;77.89;99424.47;4988162;28;20502;-69
2021/04/06 03:38:57;;;;;;;11.05;5.03;;;;;;;0.93;77.65;99414.03;4989147;28;20076;-69
2021/04/06 03:41:25;;;;;;;12.32;6.00;;;;;;;0.94;77.71;99414.03;4989703;28;20027;-69
2021/04/06 03:43:52;;;;;;;13.40;5.60;;;;;;;0.94;77.95;99419.22;4990105;28;20033;-69
2021/04/06 03:46:24;;;;;;;15.32;6.65;;;;;;;0.93;78.06;99416.63;4991804;28;20129;-70
2021/04/06 03:48:51;;;;;;;12.70;3.72;;;;;;;0.92;77.81;99412.34;4992954;28;20043;-69
2021/04/06 03:51:28;;;;;;;12.30;4.57;;;;;;;0.95;78.10;99410.53;4993358;28;20477;-69
2021/04/06 03:53:55;;;;;;;9.57;3.28;;;;;;;0.96;77.68;99411.38;4993007;28;20035;-69
2021/04/06 03:56:32;;;;;;;12.75;4.50;;;;;;;1.01;77.52;99414.75;4993609;28;20039;-69
2021/04/06 03:58:58;;;;;;;18.13;4.55;;;;;;;1.01;77.88;99401.78;4992845;28;20038;-69
2021/04/06 04:01:25;;;;;;;12.23;4.25;;;;;;;1.07;77.58;99399.94;4993122;28;20567;-69
2021/04/06 04:03:55;;;;;;;13.75;3.95;;;;;;;1.02;78.23;99399.19;4993448;28;20054;-69
2021/04/06 04:06:29;;;;;;;16.38;4.45;;;;;;;0.98;78.45;99400.09;4993229;28;20034;-69
2021/04/06 04:08:55;;;;;;;12.25;4.13;;;;;;;0.97;78.26;99407.94;4992235;28;20081;-69
2021/04/06 04:11:24;;;;;;;14.00;4.30;;;;;;;0.90;78.43;99414.94;4991966;28;20124;-69
2021/04/06 04:13:49;;;;;;;10.75;5.30;;;;;;;0.83;78.99;99421.13;4993154;28;20046;-70
2021/04/06 04:16:16;;;;;;;6.63;3.55;;;;;;;0.74;79.64;99406.56;4993090;28;20568;-69
2021/04/06 04:18:41;;;;;;;7.45;3.78;;;;;;;0.74;80.17;99406.56;4992634;28;20045;-69
2021/04/06 04:21:10;;;;;;;8.73;3.55;;;;;;;0.71;80.48;99409.19;4993387;28;20050;-69
2021/04/06 04:23:35;;;;;;;10.32;3.78;;;;;;;0.70;80.55;99406.63;4992796;28;20057;-69
2021/04/06 04:26:00;;;;;;;11.32;4.90;;;;;;;0.68;79.89;99401.44;4992587;28;20489;-69
2021/04/06 04:28:26;;;;;;;10.25;4.88;;;;;;;0.70;80.19;99404.88;4992166;28;20038;-69
2021/04/06 04:30:53;;;;;;;9.50;4.47;;;;;;;0.76;79.37;99409.13;4992945;28;20062;-69
2021/04/06 04:33:18;;;;;;;13.88;4.88;;;;;;;0.79;78.84;99409.94;4992669;28;20443;-69
2021/04/06 04:35:44;;;;;;;15.23;5.22;;;;;;;0.79;78.91;99407.34;4989224;28;20161;-69
2021/04/06 04:38:09;;;;;;;15.80;6.65;;;;;;;0.79;78.69;99402.16;4992408;28;20046;-69
2021/04/06 04:40:38;;;;;;;11.82;4.63;;;;;;;0.80;78.92;99422.03;4992258;28;20042;-69
2021/04/06 04:43:03;;;;;;;14.07;5.63;;;;;;;0.78;78.73;99407.34;4992164;28;20045;-69
2021/04/06 04:45:29;;;;;;;8.63;4.47;;;;;;;0.78;79.00;99409.94;4992209;28;20401;-69
2021/04/06 04:47:54;;;;;;;20.10;5.85;;;;;;;0.78;78.59;99412.53;4993313;28;20034;-70
2021/04/06 04:50:21;;;;;;;17.58;4.40;;;;;;;0.73;78.91;99412.63;4993059;28;20482;-69
2021/04/06 04:52:48;;;;;;;15.98;4.28;;;;;;;0.76;79.14;99419.50;4992951;28;20031;-69
2021/04/06 04:55:15;;;;;;;17.80;6.38;;;;;;;0.81;79.40;99413.38;4993270;28;20524;-69
2021/04/06 04:57:41;;;;;;;10.68;4.65;;;;;;;0.88;78.91;99414.13;4993149;28;20486;-69
2021/04/06 05:00:07;;;;;;;18.35;4.40;;;;;;;0.91;78.12;99418.41;4993114;28;20062;-69
2021/04/06 05:02:33;;;;;;;9.25;4.82;;;;;;;0.94;77.54;99419.22;4992857;28;20049;-69
2021/04/06 05:04:58;;;;;;;9.07;4.65;;;;;;;0.91;77.56;99421.00;4972699;28;20042;-69
2021/04/06 05:07:24;;;;;;;17.90;4.30;;;;;;;0.90;77.75;99420.13;4973307;28;20483;-69
2021/04/06 05:09:49;;;;;;;12.50;4.65;;;;;;;0.91;77.56;99424.47;4973014;28;20051;-69
2021/04/06 05:12:15;;;;;;;13.73;5.20;;;;;;;0.87;77.18;99425.38;4987304;28;20126;-69
2021/04/06 05:14:40;;;;;;;10.13;5.45;;;;;;;0.89;77.36;99427.94;4972549;28;20030;-69
2021/04/06 05:17:06;;;;;;;12.90;5.22;;;;;;;0.90;77.15;99422.72;4979663;28;20133;-68
2021/04/06 05:19:32;;;;;;;11.15;5.00;;;;;;;0.93;77.32;99427.03;4991250;28;20038;-68
2021/04/06 05:21:57;;;;;;;16.13;5.57;;;;;;;0.92;77.58;99423.56;4990665;28;20034;-68
2021/04/06 05:24:22;;;;;;;17.13;5.40;;;;;;;0.92;77.54;99427.91;4992303;28;20054;-68
2021/04/06 05:26:48;;;;;;;10.27;4.60;;;;;;;0.92;76.83;99420.13;4991606;28;20045;-68
2021/04/06 05:29:13;;;;;;;10.50;4.85;;;;;;;0.92;77.08;99423.56;4990960;28;20108;-69
2021/04/06 05:31:38;;;;;;;15.98;5.63;;;;;;;0.93;76.70;99424.41;4975588;28;20054;-69
2021/04/06 05:34:04;;;;;;;17.88;5.45;;;;;;;0.98;76.45;99431.25;4972196;28;20045;-69
2021/04/06 05:36:29;;;;;;;17.77;4.70;;;;;;;1.04;75.90;99433.75;4972462;28;20043;-69
2021/04/06 05:38:54;;;;;;;14.93;5.07;;;;;;;1.07;76.01;99435.44;4972200;28;20119;-70
2021/04/06 05:41:20;;;;;;;17.05;5.50;;;;;;;1.10;75.83;99440.56;4972416;28;20035;-69
2021/04/06 05:43:47;;;;;;;16.60;5.70;;;;;;;1.15;75.57;99437.91;4972284;28;20039;-69
2021/04/06 05:46:13;;;;;;;14.40;5.10;;;;;;;1.18;75.58;99436.13;4971820;28;20072;-69
2021/04/06 05:48:40;;;;;;;12.05;4.68;;;;;;;1.21;75.06;99436.09;4969866;28;20027;-69
2021/04/06 05:51:06;;;;;;;18.20;6.20;;;;;;;1.27;74.69;99435.97;4971524;28;20498;-69
2021/04/06 05:53:32;;;;;;;24.58;5.55;;;;;;;1.35;74.65;99441.00;4971411;28;20403;-69
2021/04/06 05:56:00;;;;;;;13.02;5.45;;;;;;;1.35;74.48;99443.63;4971513;28;20042;-68
2021/04/06 05:58:26;;;;;;;18.20;6.35;;;;;;;1.29;74.60;99442.00;4970981;28;20039;-68
2021/04/06 06:00:51;;;;;;;11.45;5.10;;;;;;;1.36;75.12;99439.31;4971633;28;20398;-69
2021/04/06 06:03:17;;;;;;;16.73;6.20;;;;;;;1.39;74.29;99434.91;4971157;28;20081;-69
2021/04/06 06:05:42;;;;;;;22.63;5.30;;;;;;;1.45;73.92;99444.31;4978270;28;20041;-69
2021/04/06 06:08:12;;;;;;;11.40;5.82;;;;;;;1.43;73.99;99439.16;4989393;28;20045;-68
2021/04/06 06:10:37;;;;;;;18.30;5.43;;;;;;;1.46;73.89;99440.84;4988850;28;20080;-68
2021/04/06 06:13:16;;;;;;;17.88;5.97;;;;;;;1.55;74.58;99437.22;4990424;28;20137;-68
2021/04/06 06:15:42;;;;;;;11.45;5.68;;;;;;;1.59;73.95;99441.47;4990869;28;20066;-68
2021/04/06 06:18:07;;;;;;;24.38;6.65;;;;;;;1.58;74.26;99432.84;4990717;28;20054;-69
2021/04/06 06:20:34;;;;;;;14.52;7.85;;;;;;;1.59;74.12;99441.47;4990274;28;20041;-69
2021/04/06 06:23:22;;;;;;;21.63;6.65;;;;;;;1.59;74.13;99439.72;4989548;28;20041;-69
2021/04/06 06:26:03;;;;;;;20.42;8.27;;;;;;;1.56;74.66;99452.78;5022019;28;20515;-69
2021/04/06 06:28:29;;;;;;;10.57;3.88;;;;;;;1.64;73.81;99444.84;4986444;28;20042;-69
2021/04/06 06:30:56;;;;;;;11.85;4.78;;;;;;;1.63;73.11;99454.38;4989711;28;20355;-68
2021/04/06 06:33:25;;;;;;;7.78;3.65;;;;;;;1.67;73.29;99448.25;4989832;28;20130;-69
2021/04/06 06:35:58;;;;;;;7.85;3.65;;;;;;;1.69;72.81;99448.22;4989762;28;20066;-69
2021/04/06 06:38:25;;;;;;;5.05;2.70;;;;;;;1.91;72.00;99446.91;4990199;28;20034;-69
2021/04/06 06:40:53;;;;;;;7.72;2.70;;;;;;;2.25;70.83;99445.38;4989328;28;20490;-68
2021/04/06 06:43:20;;;;;;;6.50;2.30;;;;;;;2.41;70.75;99438.09;4986131;28;20506;-68
2021/04/06 06:45:47;;;;;;;6.47;2.45;;;;;;;2.47;69.47;99445.78;4988526;28;20041;-68
2021/04/06 06:48:30;;;;;;;5.72;3.25;;;;;;;2.68;69.74;99442.69;4989576;28;20066;-69
2021/04/06 06:50:58;;;;;;;7.57;2.30;;;;;;;2.73;70.07;99446.06;4989067;28;20545;-68
2021/04/06 06:53:40;;;;;;;6.32;3.22;;;;;;;2.81;69.16;99438.09;4988912;28;20038;-68
2021/04/06 06:56:07;;;;;;;5.15;2.47;;;;;;;3.07;68.97;99434.84;4982780;28;20034;-69
2021/04/06 06:58:35;;;;;;;7.88;2.92;;;;;;;3.16;67.41;99441.59;4989504;28;20079;-69
2021/04/06 07:01:01;;;;;;;10.77;2.83;;;;;;;3.06;67.45;99433.16;4989834;28;20058;-67
2021/04/06 07:03:27;;;;;;;10.43;5.05;;;;;;;3.08;68.08;99436.56;4990523;28;20066;-68
2021/04/06 07:05:53;;;;;;;4.53;2.78;;;;;;;3.08;68.08;99440.94;4990259;28;20057;-68
2021/04/06 07:08:33;;;;;;;10.07;4.13;;;;;;;2.94;67.81;99436.88;4990011;28;20042;-68
2021/04/06 07:11:01;;;;;;;6.90;3.70;;;;;;;2.77;67.80;99434.69;4989244;28;20113;-69
2021/04/06 07:13:32;;;;;;;12.95;4.28;;;;;;;3.28;66.71;99432.63;4994494;28;20537;-69
2021/04/06 07:15:58;;;;;;;10.00;3.58;;;;;;;3.61;65.02;99430.88;4992684;28;20042;-69
2021/04/06 07:18:27;;;;;;;13.15;4.22;;;;;;;3.31;65.29;99442.97;4994399;28;20069;-68
2021/04/06 07:21:01;;;;;;;10.43;4.60;;;;;;;3.22;66.03;99439.69;4997234;28;20141;-69
2021/04/06 07:23:35;;;;;;;14.18;5.40;;;;;;;3.14;66.09;99439.00;4994336;28;20045;-69
2021/04/06 07:26:11;;;;;;;13.23;4.85;;;;;;;3.05;67.17;99443.59;4994520;28;20110;-68
2021/04/06 07:28:40;;;;;;;9.27;3.92;;;;;;;3.29;66.62;99434.31;4995418;28;20041;-68
2021/04/06 07:31:08;;;;;;;12.85;5.10;;;;;;;3.53;65.85;99431.09;4999641;28;20050;-68
2021/04/06 07:33:34;;;;;;;13.65;4.32;;;;;;;3.62;65.49;99433.44;4997203;28;20038;-69
2021/04/06 07:36:03;;;;;;;10.23;4.35;;;;;;;3.65;65.73;99433.38;4996556;28;20030;-69
2021/04/06 07:38:31;;;;;;;11.38;4.75;;;;;;;3.35;66.77;99436.78;4996324;28;20612;-68
2021/04/06 07:40:57;;;;;;;13.25;4.15;;;;;;;3.17;66.78;99438.94;4995609;28;20034;-69
2021/04/06 07:43:24;;;;;;;11.27;4.53;;;;;;;3.09;68.16;99438.28;4994093;28;20037;-71
2021/04/06 07:45:50;;;;;;;9.88;5.00;;;;;;;3.08;68.10;99439.19;5000094;28;20045;-70
2021/04/06 07:48:41;;;;;;;12.02;5.22;;;;;;;3.05;67.78;99433.16;4997593;28;20062;-69
2021/04/06 07:51:18;;;;;;;11.95;4.43;;;;;;;3.05;68.28;99441.81;4994743;28;20038;-69
2021/04/06 07:54:14;;;;;;;8.77;3.65;;;;;;;2.90;67.33;99445.66;4994477;28;20121;-69
2021/04/06 07:56:42;;;;;;;10.02;3.67;;;;;;;2.87;67.86;99450.09;4971463;28;20035;-65
2021/04/06 07:59:08;;;;;;;6.03;3.30;;;;;;;2.85;69.36;99451.88;4973647;28;20479;-65
2021/04/06 08:01:33;;;;;;;8.40;4.18;;;;;;;2.76;68.03;99446.00;4974061;28;20031;-64
2021/04/06 08:04:03;;;;;;;7.47;3.67;;;;;;;2.58;68.90;99447.28;4990655;28;20034;-65
2021/04/06 08:06:40;;;;;;;8.73;3.85;;;;;;;2.46;69.70;99457.06;4993292;28;20385;-65
2021/04/06 08:09:35;;;;;;;12.23;3.97;;;;;;;2.25;70.97;99454.03;5010324;28;20038;-65
2021/04/06 08:12:10;;;;;;;10.40;4.50;;;;;;;2.05;71.96;99446.66;5012719;28;20061;-67
2021/04/06 08:14:55;;;;;;;6.97;3.63;;;;;;;2.04;71.87;99441.47;5012313;28;20041;-64
2021/04/06 08:17:26;;;;;;;7.70;4.30;;;;;;;1.97;72.37;99456.34;4999471;28;20781;-69
2021/04/06 08:20:06;;;;;;;4.90;3.35;;;;;;;1.94;72.17;99451.19;5003718;28;20042;-69
2021/04/06 08:22:37;;;;;;;14.07;4.25;;;;;;;2.05;72.65;99456.19;5006644;28;20046;-69
2021/04/06 08:25:17;;;;;;;9.68;4.10;;;;;;;2.36;71.46;99438.19;5007557;28;20135;-68
2021/04/06 08:27:47;;;;;;;5.90;3.45;;;;;;;2.63;69.87;99448.91;5006956;28;20038;-69
2021/04/06 08:30:15;;;;;;;14.18;4.22;;;;;;;2.89;68.90;99443.09;5006793;28;20104;-69
2021/04/06 08:32:43;;;;;;;5.30;2.97;;;;;;;3.11;67.48;99452.13;4989514;28;20088;-69
2021/04/06 08:35:08;;;;;;;10.88;2.75;;;;;;;3.55;66.70;99447.53;5003924;28;20520;-69
2021/04/06 08:37:37;;;;;;;6.47;2.72;;;;;;;3.48;67.05;99453.81;5012844;28;20038;-70
2021/04/06 08:40:08;;;;;;;7.18;2.67;;;;;;;3.25;67.33;99449.19;5005466;28;20715;-70
2021/04/06 08:42:35;;;;;;;6.93;3.08;;;;;;;3.25;65.86;99456.13;5003405;28;20038;-70
2021/04/06 08:45:03;;;;;;;7.18;3.28;;;;;;;3.15;66.49;99451.16;5006083;28;20037;-69
2021/04/06 08:47:46;;;;;;;7.60;3.08;;;;;;;3.05;67.64;99464.41;5005704;28;20044;-69
2021/04/06 08:50:38;;;;;;;13.43;3.72;;;;;;;2.91;67.69;99464.75;5005822;28;20131;-69
2021/04/06 08:53:05;;;;;;;6.28;2.97;;;;;;;2.82;69.08;99455.41;4999536;28;20026;-69
2021/04/06 08:55:31;;;;;;;7.70;2.92;;;;;;;2.69;68.48;99452.22;5005965;28;20037;-69
2021/04/06 08:57:59;;;;;;;5.97;3.17;;;;;;;2.67;69.30;99464.41;5006547;28;20146;-69
2021/04/06 09:00:27;;;;;;;6.00;3.50;;;;;;;2.52;70.00;99459.56;5004514;28;20061;-68
2021/04/06 09:03:04;;;;;;;15.10;4.57;;;;;;;2.40;70.61;99467.63;5006325;28;20033;-68
2021/04/06 09:05:29;;;;;;;10.63;4.30;;;;;;;2.38;70.96;99470.25;5006268;28;20038;-70
2021/04/06 09:07:55;;;;;;;16.05;6.95;;;;;;;2.31;71.48;99461.72;5006021;28;20121;-70
2021/04/06 09:10:20;;;;;;;6.63;4.10;;;;;;;2.20;71.68;99473.25;5005388;28;20120;-70
2021/04/06 09:12:46;;;;;;;4.38;2.63;;;;;;;2.10;72.60;99469.97;5006235;28;20072;-69
2021/04/06 09:15:13;;;;;;;8.52;4.80;;;;;;;1.90;73.53;99476.41;5005545;28;20046;-68
2021/04/06 09:17:40;;;;;;;7.57;4.68;;;;;;;1.71;73.89;99456.84;5022839;28;20026;-68
2021/04/06 09:20:12;;;;;;;10.07;4.28;;;;;;;1.67;74.77;99435.28;5025385;28;20524;-68
2021/04/06 09:22:39;;;;;;;7.05;3.45;;;;;;;1.74;74.52;99441.19;5025405;28;20109;-68
2021/04/06 09:25:17;;;;;;;8.00;4.57;;;;;;;1.88;73.16;99454.78;5013483;28;20493;-68
2021/04/06 09:27:51;;;;;;;5.90;2.40;;;;;;;2.73;69.62;99447.78;5005262;28;20797;-68
2021/04/06 09:30:17;;;;;;;5.70;2.65;;;;;;;4.19;65.31;99452.75;5005147;28;20100;-69
2021/04/06 09:32:42;;;;;;;4.20;2.60;;;;;;;4.84;62.52;99437.75;5005551;28;20033;-69
2021/04/06 09:35:08;;;;;;;5.28;2.15;;;;;;;4.78;62.28;99446.66;5005440;28;20493;-70
2021/04/06 09:37:33;;;;;;;2.70;1.77;;;;;;;4.49;62.64;99447.53;5005913;28;20068;-71
2021/04/06 09:39:59;;;;;;;6.43;1.67;;;;;;;4.31;62.79;99433.28;5005695;28;20060;-70
2021/04/06 09:42:24;;;;;;;4.38;2.33;;;;;;;4.18;63.84;99451.03;5005416;28;20080;-69
2021/04/06 09:44:51;;;;;;;5.32;2.40;;;;;;;4.69;62.02;99446.94;5005482;28;20065;-70
2021/04/06 09:47:21;;;;;;;3.80;2.20;;;;;;;5.01;61.74;99440.69;5005080;28;20046;-71
2021/04/06 09:49:49;;;;;;;6.55;2.38;;;;;;;6.18;57.27;99427.09;5004770;28;20402;-69
2021/04/06 09:52:32;;;;;;;7.38;2.90;;;;;;;7.82;51.88;99424.00;5005342;28;20053;-70
2021/04/06 09:55:08;;;;;;;4.03;2.20;;;;;;;8.15;49.27;99424.28;5005344;28;20030;-69
2021/04/06 09:57:46;;;;;;;4.60;2.00;;;;;;;7.91;52.34;99418.34;5004621;28;20186;-68
2021/04/06 10:00:17;;;;;;;4.43;1.83;;;;;;;7.93;50.44;99425.25;5004578;28;20117;-68
2021/04/06 10:02:44;;;;;;;9.32;3.05;;;;;;;7.19;53.42;99421.44;5004934;28;20133;-69
2021/04/06 10:05:21;;;;;;;6.18;3.03;;;;;;;6.70;54.60;99428.66;5005515;28;20497;-67
2021/04/06 10:07:48;;;;;;;4.40;2.55;;;;;;;6.18;56.69;99427.09;5004691;28;20053;-70
2021/04/06 10:10:30;;;;;;;6.38;3.05;;;;;;;5.58;58.79;99425.72;5004118;28;20406;-72
2021/04/06 10:12:56;;;;;;;8.23;2.97;;;;;;;4.95;59.95;99420.84;5005760;28;20034;-69
2021/04/06 10:15:25;;;;;;;4.70;2.78;;;;;;;4.64;61.43;99415.72;5005125;28;20029;-69
2021/04/06 10:17:51;;;;;;;6.43;3.35;;;;;;;4.54;62.18;99416.91;5004725;28;20038;-70
2021/04/06 10:20:38;;;;;;;5.07;2.70;;;;;;;4.57;61.38;99418.59;5004758;28;20073;-70
2021/04/06 10:23:04;;;;;;;6.72;2.92;;;;;;;4.70;60.29;99417.28;5004210;28;20030;-70
2021/04/06 10:25:42;;;;;;;6.32;3.08;;;;;;;5.77;57.54;99394.56;5003815;28;20042;-71
2021/04/06 10:28:20;;;;;;;6.40;3.05;;;;;;;6.70;54.79;99392.81;5004035;28;20092;-69
2021/04/06 10:30:49;;;;;;;5.32;2.90;;;;;;;7.06;54.70;99398.34;5004443;28;20045;-68
2021/04/06 10:33:17;;;;;;;9.65;3.92;;;;;;;6.32;56.86;99395.16;5006107;28;20115;-68
2021/04/06 10:35:42;;;;;;;8.85;3.50;;;;;;;6.09;57.25;99392.56;5007231;28;20675;-69
2021/04/06 10:38:17;;;;;;;9.98;4.05;;;;;;;6.11;56.26;99390.75;5006209;28;20053;-69
2021/04/06 10:40:43;;;;;;;11.60;3.45;;;;;;;6.15;55.04;99380.13;5002069;28;20502;-69
2021/04/06 10:43:21;;;;;;;8.75;2.90;;;;;;;5.98;55.66;99377.25;5004312;28;20038;-70
2021/04/06 10:45:52;;;;;;;10.48;3.25;;;;;;;6.09;57.04;99369.00;5002505;28;20057;-69
2021/04/06 10:48:23;;;;;;;7.97;3.40;;;;;;;6.27;54.65;99372.69;5004081;28;20042;-70
2021/04/06 10:50:57;;;;;;;15.30;4.22;;;;;;;6.80;56.34;99359.25;4985240;28;20617;-69
2021/04/06 10:53:26;;;;;;;6.25;2.88;;;;;;;6.69;54.21;99371.91;4984942;28;20068;-69
2021/04/06 10:55:55;;;;;;;9.48;3.72;;;;;;;6.27;54.77;99362.22;4994066;28;20050;-69
2021/04/06 10:58:23;;;;;;;3.92;3.03;;;;;;;6.25;55.81;99351.78;5005005;28;20045;-69
2021/04/06 11:00:56;;;;;;;7.65;3.47;;;;;;;6.05;55.76;99357.78;5021710;28;20558;-70
2021/04/06 11:03:22;;;;;;;9.00;3.72;;;;;;;5.86;56.09;99355.00;5025055;28;20651;-70
2021/04/06 11:05:47;;;;;;;6.07;2.70;;;;;;;5.41;57.92;99366.19;5022115;28;20033;-68
2021/04/06 11:08:26;;;;;;;7.18;4.00;;;;;;;4.71;61.16;99372.00;5007067;28;20066;-69
2021/04/06 11:11:13;;;;;;;6.25;2.97;;;;;;;4.39;62.78;99373.88;5003685;28;20049;-68
2021/04/06 11:13:38;;;;;;;;;;;;;;;4.06;64.71;99380.94;5003208;28;20080;-68
2021/04/06 11:16:04;;;;;;;9.70;4.37;;;;;;;3.76;66.79;99369.66;5004708;28;19976;-67
2021/04/06 11:18:29;;;;;;;4.72;2.83;;;;;;;3.61;67.27;99366.56;5005030;28;20255;-69
2021/04/06 11:20:55;;;;;;;8.77;3.17;;;;;;;3.42;67.81;99363.63;4994844;28;20039;-69
2021/04/06 11:23:20;;;;;;;6.45;2.80;;;;;;;3.35;68.61;99356.03;4985622;28;20435;-70
2021/04/06 11:25:46;;;;;;;5.07;2.50;;;;;;;3.53;67.77;99360.72;5003924;28;20114;-70
2021/04/06 11:28:11;;;;;;;3.13;2.20;;;;;;;3.76;68.84;99354.84;5003703;28;20124;-68
2021/04/06 11:30:36;;;;;;;7.53;3.28;;;;;;;4.23;67.44;99355.22;5003472;28;20058;-68
2021/04/06 11:33:04;;;;;;;5.65;3.00;;;;;;;4.60;66.82;99354.06;5004018;28;20405;-68
2021/04/06 11:35:31;;;;;;;4.38;2.40;;;;;;;4.66;65.95;99351.28;5002804;28;20565;-67
2021/04/06 11:37:56;;;;;;;5.93;2.60;;;;;;;4.67;65.16;99349.50;5003907;28;20096;-68
2021/04/06 11:40:22;;;;;;;4.28;2.88;;;;;;;4.67;65.32;99347.75;5003487;28;20026;-68
2021/04/06 11:42:48;;;;;;;6.10;2.28;;;;;;;4.69;62.59;99350.31;5003534;28;20037;-70
2021/04/06 11:45:13;;;;;;;7.82;2.03;;;;;;;4.68;62.50;99341.63;5003140;28;20048;-69
2021/04/06 11:47:39;;;;;;;6.50;2.47;;;;;;;4.80;60.99;99334.28;5003832;28;20125;-70
2021/04/06 11:50:07;;;;;;;4.78;2.03;;;;;;;5.01;61.86;99337.97;5003601;28;20096;-70
2021/04/06 11:52:34;;;;;;;3.65;2.80;;;;;;;4.88;62.81;99327.91;5004245;28;20034;-70